Time;durP1;ratioP1;P1;durP2;ratioP2;P2;SDS_P1;SDS_P2;PMS_P1;PMS_P2;Temp;Humidity;BMP_temperature;BMP_pressure;BME280_temperature;BME280_humidity;BME280_pressure;Samples;Min_cycle;Max_cycle;Signal;HPM_P1;HPM_P2
2022/09/24 00:01:13;;;;;;;32.33;27.17;;;;;;;13.88;nan;101071.53;5010754;28;20041;-66
2022/09/24 00:03:40;;;;;;;28.10;24.60;;;;;;;13.95;nan;101070.34;5013870;28;20033;-64
2022/09/24 00:06:07;;;;;;;29.85;25.98;;;;;;;13.62;nan;101022.34;5015262;28;20496;-64
2022/09/24 00:08:33;;;;;;;30.52;25.75;;;;;;;13.89;nan;101063.50;5016860;28;20114;-63
2022/09/24 00:11:04;;;;;;;29.45;24.17;;;;;;;13.80;nan;101057.75;5033591;28;20121;-63
2022/09/24 00:13:31;;;;;;;29.10;25.90;;;;;;;13.85;nan;101063.72;5034831;28;20049;-64
2022/09/24 00:16:02;;;;;;;29.77;25.02;;;;;;;13.85;nan;101071.66;5034949;28;20128;-63
2022/09/24 00:18:27;;;;;;;31.13;26.13;;;;;;;13.84;nan;101065.50;5034923;28;20033;-64
2022/09/24 00:20:53;;;;;;;31.33;27.00;;;;;;;13.82;nan;101067.34;5034686;28;20083;-66
2022/09/24 00:23:18;;;;;;;30.95;26.25;;;;;;;13.83;nan;101061.16;5034793;28;20045;-64
2022/09/24 00:28:29;;;;;;;32.85;26.73;;;;;;;13.80;nan;101061.28;5034802;28;20087;-65
2022/09/24 00:30:58;;;;;;;31.30;25.90;;;;;;;13.66;nan;101038.97;5035056;28;20040;-63
2022/09/24 00:33:27;;;;;;;28.63;24.48;;;;;;;13.43;nan;101009.03;5033057;28;20041;-66
2022/09/24 00:35:57;;;;;;;29.60;25.23;;;;;;;13.77;nan;101061.41;5034931;28;20100;-63
2022/09/24 00:38:27;;;;;;;28.90;25.35;;;;;;;13.80;nan;101060.41;5031343;28;20141;-63
2022/09/24 00:40:58;;;;;;;32.65;26.15;;;;;;;13.77;nan;101060.53;5025542;28;20041;-65
2022/09/24 00:43:36;;;;;;;30.27;25.00;;;;;;;13.58;nan;101031.34;5034435;28;20054;-64
2022/09/24 00:46:11;;;;;;;29.30;26.13;;;;;;;13.78;nan;101060.44;5034644;28;20457;-64
2022/09/24 00:48:39;;;;;;;29.85;25.55;;;;;;;13.74;nan;101048.31;5034165;28;20033;-63
2022/09/24 00:51:08;;;;;;;28.92;25.83;;;;;;;13.04;nan;100936.63;5032840;28;20041;-64
2022/09/24 00:53:35;;;;;;;31.02;27.67;;;;;;;13.73;nan;101048.34;5034031;28;20094;-69
2022/09/24 00:56:02;;;;;;;30.02;26.75;;;;;;;13.78;nan;101049.00;5030977;28;20049;-67
2022/09/24 00:58:30;;;;;;;28.52;25.42;;;;;;;13.69;nan;101033.53;5013168;28;20034;-62
2022/09/24 01:01:00;;;;;;;28.88;25.77;;;;;;;13.42;nan;100985.31;5014418;28;20086;-65
2022/09/24 01:03:26;;;;;;;29.20;25.67;;;;;;;13.65;nan;101027.53;5016175;28;20061;-65
2022/09/24 01:05:51;;;;;;;28.48;25.40;;;;;;;13.37;nan;100966.97;5012313;28;20370;-64
2022/09/24 01:08:18;;;;;;;28.30;25.25;;;;;;;13.35;nan;100966.19;5013766;28;20044;-67
2022/09/24 01:11:11;;;;;;;28.83;25.83;;;;;;;13.76;nan;101041.16;5012688;28;20030;-63
2022/09/24 01:13:55;;;;;;;28.45;25.48;;;;;;;13.73;nan;101040.41;5013494;28;20053;-64
2022/09/24 01:16:44;;;;;;;29.00;25.60;;;;;;;13.71;nan;101039.63;5013502;28;20034;-65
2022/09/24 01:19:34;;;;;;;27.45;23.55;;;;;;;13.72;nan;101030.78;5012196;28;20034;-63
2022/09/24 01:22:17;;;;;;;28.17;24.15;;;;;;;13.41;nan;100979.16;5013639;28;20057;-65
2022/09/24 01:25:01;;;;;;;29.95;24.38;;;;;;;13.71;nan;101024.63;5012863;28;20504;-63
2022/09/24 01:28:03;;;;;;;29.90;24.77;;;;;;;13.36;nan;100967.06;5011587;28;20034;-65
2022/09/24 01:30:31;;;;;;;27.30;24.35;;;;;;;13.38;nan;100960.78;5012455;28;20484;-63
2022/09/24 01:33:00;;;;;;;27.63;24.30;;;;;;;13.74;nan;101024.50;5012387;28;20030;-67
2022/09/24 01:35:34;;;;;;;27.52;24.45;;;;;;;13.74;nan;101020.97;5011382;28;20344;-63
2022/09/24 01:38:12;;;;;;;28.88;25.70;;;;;;;13.59;nan;100988.09;5011300;28;20394;-63
2022/09/24 01:40:38;;;;;;;32.83;26.38;;;;;;;13.70;nan;101014.09;5012183;28;20111;-63
2022/09/24 01:43:04;;;;;;;29.08;25.85;;;;;;;13.57;nan;100987.31;5011870;28;20034;-64
2022/09/24 01:45:30;;;;;;;32.00;27.30;;;;;;;13.31;nan;100938.16;4995647;28;20191;-68
2022/09/24 01:47:59;;;;;;;32.75;27.08;;;;;;;13.72;nan;100999.03;5012318;28;20083;-65
2022/09/24 01:50:27;;;;;;;33.97;28.13;;;;;;;13.47;nan;100959.53;5012232;28;20033;-69
2022/09/24 01:53:17;;;;;;;33.88;27.15;;;;;;;13.28;nan;100922.41;5011830;28;20026;-69
2022/09/24 01:55:48;;;;;;;33.85;28.50;;;;;;;13.35;nan;100925.66;5028613;28;20038;-64
2022/09/24 01:58:15;;;;;;;;;;;;;;;13.74;nan;101005.09;5026755;28;20109;-63
2022/09/24 02:00:43;;;;;;;37.08;29.52;;;;;;;13.73;nan;101001.59;5031808;28;19917;-65
2022/09/24 02:03:17;;;;;;;36.70;29.08;;;;;;;13.71;nan;100979.66;5031963;28;20033;-65
2022/09/24 02:05:54;;;;;;;36.03;28.50;;;;;;;13.73;nan;101000.72;5031690;28;20060;-68
2022/09/24 02:08:22;;;;;;;35.28;29.05;;;;;;;13.74;nan;101002.47;5031696;28;20037;-63
2022/09/24 02:10:57;;;;;;;39.45;29.92;;;;;;;13.45;nan;100938.44;5031768;28;20038;-64
2022/09/24 02:13:26;;;;;;;35.70;28.10;;;;;;;13.46;nan;100944.56;5031156;28;20041;-66
2022/09/24 02:15:56;;;;;;;37.42;28.80;;;;;;;13.66;nan;100988.72;5015203;28;20064;-63
2022/09/24 02:18:25;;;;;;;34.67;27.08;;;;;;;13.65;nan;100985.19;5031575;28;20025;-65
2022/09/24 02:20:52;;;;;;;37.03;28.30;;;;;;;13.68;nan;100974.50;5031248;28;20040;-65
2022/09/24 02:23:18;;;;;;;35.78;27.77;;;;;;;13.65;nan;100974.63;5031295;28;20040;-64
2022/09/24 02:25:52;;;;;;;37.28;27.40;;;;;;;13.24;nan;100896.19;5031950;28;20045;-65
2022/09/24 02:28:17;;;;;;;39.50;28.35;;;;;;;13.57;nan;100960.00;5031705;28;20104;-64
2022/09/24 02:30:49;;;;;;;33.53;26.70;;;;;;;13.52;nan;100962.81;5014830;28;20128;-65
2022/09/24 02:36:00;;;;;;;38.25;29.88;;;;;;;13.41;nan;100968.56;5031406;28;20428;-67
2022/09/24 02:38:25;;;;;;;37.30;27.73;;;;;;;13.36;nan;100967.91;5014802;28;20115;-64
2022/09/24 02:40:52;;;;;;;36.58;28.13;;;;;;;12.89;nan;100901.13;5032477;28;20033;-68
2022/09/24 02:43:17;;;;;;;36.45;27.40;;;;;;;13.05;nan;100934.84;5031238;28;20116;-70
2022/09/24 02:45:42;;;;;;;39.88;28.08;;;;;;;13.26;nan;100971.84;5032469;28;20564;-65
2022/09/24 02:48:08;;;;;;;37.20;28.15;;;;;;;13.29;nan;100970.88;5032240;28;20043;-71
2022/09/24 02:50:33;;;;;;;36.70;28.85;;;;;;;13.02;nan;100921.78;5030288;28;20072;-66
2022/09/24 02:52:58;;;;;;;37.80;29.05;;;;;;;13.31;nan;100963.75;5028713;28;20056;-64
2022/09/24 02:55:23;;;;;;;40.63;28.85;;;;;;;13.34;nan;100974.16;5032446;28;20491;-64
2022/09/24 02:57:49;;;;;;;40.72;29.73;;;;;;;13.35;nan;100967.97;5032270;28;20038;-66
2022/09/24 03:00:14;;;;;;;40.45;29.70;;;;;;;13.34;nan;100966.22;5030948;28;20033;-64
2022/09/24 03:02:40;;;;;;;39.88;29.48;;;;;;;13.03;nan;100923.47;5030948;28;20044;-69
2022/09/24 03:05:05;;;;;;;41.30;29.88;;;;;;;13.37;nan;100974.03;5030808;28;20436;-65
2022/09/24 03:07:31;;;;;;;42.95;30.50;;;;;;;13.38;nan;100975.78;5032041;28;20065;-64
2022/09/24 03:09:56;;;;;;;44.60;31.75;;;;;;;13.38;nan;100978.41;5032299;28;20088;-64
2022/09/24 03:12:22;;;;;;;47.42;30.90;;;;;;;13.37;nan;100966.97;5032548;28;20038;-63
2022/09/24 03:14:47;;;;;;;41.80;29.67;;;;;;;13.42;nan;100974.72;5031862;28;20046;-64
2022/09/24 03:17:12;;;;;;;45.88;30.73;;;;;;;13.08;nan;100911.81;5031919;28;20037;-64
2022/09/24 03:19:38;;;;;;;44.28;30.75;;;;;;;13.42;nan;100962.38;5032045;28;20124;-63
2022/09/24 03:22:03;;;;;;;46.75;32.50;;;;;;;13.44;nan;100972.88;5031450;28;20112;-67
2022/09/24 03:24:29;;;;;;;47.47;31.83;;;;;;;13.45;nan;100967.53;5030602;28;20037;-70
2022/09/24 03:26:54;;;;;;;50.20;33.42;;;;;;;13.16;nan;100912.38;5030386;28;20037;-65
2022/09/24 03:30:58;;;;;;;50.33;34.67;;;;;;;13.47;nan;100962.16;5031831;28;20151;-67
2022/09/24 03:32:05;;;;;;;50.97;33.55;;;;;;;13.08;nan;100901.25;5031445;28;20037;-64
2022/09/24 03:34:30;;;;;;;54.35;33.95;;;;;;;13.48;nan;100955.97;5031777;28;20044;-64
2022/09/24 03:36:55;;;;;;;50.75;33.97;;;;;;;13.11;nan;100897.59;5032230;28;20150;-65
2022/09/24 03:39:20;;;;;;;50.10;34.92;;;;;;;13.25;nan;100917.25;5035162;28;20037;-64
2022/09/24 03:41:46;;;;;;;50.35;33.08;;;;;;;13.46;nan;100956.00;5035167;28;20397;-63
2022/09/24 03:44:11;;;;;;;51.55;34.10;;;;;;;13.44;nan;100960.50;5050911;28;20488;-66
2022/09/24 03:46:36;;;;;;;51.97;34.75;;;;;;;13.52;nan;100971.63;5030029;28;20063;-64
2022/09/24 03:49:02;;;;;;;51.45;35.03;;;;;;;13.53;nan;100976.00;5035299;28;20041;-64
2022/09/24 03:51:27;;;;;;;54.30;35.10;;;;;;;13.45;nan;100950.81;5034480;28;20037;-67
2022/09/24 03:53:52;;;;;;;53.63;34.42;;;;;;;13.47;nan;100954.22;5034280;28;20041;-64
2022/09/24 03:56:18;;;;;;;55.78;35.58;;;;;;;13.53;nan;100956.63;5035811;28;20038;-68
2022/09/24 03:58:46;;;;;;;56.15;35.58;;;;;;;13.60;nan;100960.72;5050817;28;20037;-69
2022/09/24 04:01:11;;;;;;;54.72;34.72;;;;;;;13.61;nan;100961.56;5035574;28;20037;-69
2022/09/24 04:03:37;;;;;;;57.35;35.67;;;;;;;13.27;nan;100899.56;5035441;28;20049;-64
2022/09/24 04:06:03;;;;;;;52.72;35.42;;;;;;;13.54;nan;100947.78;5034305;28;20044;-64
2022/09/24 04:08:30;;;;;;;55.90;36.10;;;;;;;13.62;nan;100953.59;5035471;28;20064;-63
2022/09/24 04:10:56;;;;;;;59.25;35.58;;;;;;;13.55;nan;100949.47;5034961;28;20037;-66
2022/09/24 04:13:21;;;;;;;57.80;36.97;;;;;;;13.64;nan;100961.44;5034990;28;20409;-68
2022/09/24 04:15:49;;;;;;;57.35;36.10;;;;;;;13.63;nan;100952.63;5034673;28;20025;-67
2022/09/24 04:18:14;;;;;;;57.55;35.95;;;;;;;13.36;nan;100912.41;5034736;28;20057;-65
2022/09/24 04:20:40;;;;;;;56.63;36.78;;;;;;;13.66;nan;100957.81;5035152;28;20069;-63
2022/09/24 04:23:05;;;;;;;59.13;37.70;;;;;;;13.63;nan;100949.16;5034931;28;20075;-63
2022/09/24 04:25:31;;;;;;;60.88;37.67;;;;;;;13.32;nan;100918.72;5034429;28;20413;-64
2022/09/24 04:28:01;;;;;;;64.32;38.20;;;;;;;13.63;nan;100976.44;5033601;28;20033;-64
2022/09/24 04:30:28;;;;;;;64.47;37.07;;;;;;;13.51;nan;100963.78;5033645;28;20034;-62
2022/09/24 04:32:53;;;;;;;60.25;34.70;;;;;;;13.17;nan;100907.94;5034524;28;20025;-65
2022/09/24 04:35:20;;;;;;;54.55;34.08;;;;;;;13.39;nan;100951.06;5033330;28;20362;-63
2022/09/24 04:37:46;;;;;;;52.13;30.58;;;;;;;13.13;nan;100903.72;5033378;28;20033;-66
2022/09/24 04:40:12;;;;;;;46.17;28.40;;;;;;;13.17;nan;100913.22;5028845;28;20120;-64
2022/09/24 04:42:38;;;;;;;41.72;24.45;;;;;;;13.47;nan;100972.75;5034484;28;20488;-67
2022/09/24 04:45:08;;;;;;;43.22;23.13;;;;;;;13.12;nan;100904.63;5034409;28;20037;-67
2022/09/24 04:47:35;;;;;;;35.05;21.50;;;;;;;13.47;nan;100948.94;5033198;28;20038;-66
2022/09/24 04:50:01;;;;;;;41.10;23.48;;;;;;;13.44;nan;100957.00;5034816;28;20033;-67
2022/09/24 04:52:31;;;;;;;46.25;24.35;;;;;;;13.39;nan;100941.34;5034247;28;20128;-66
2022/09/24 04:54:57;;;;;;;43.00;24.27;;;;;;;13.08;nan;100897.72;5032686;28;20065;-64
2022/09/24 04:57:23;;;;;;;45.10;26.58;;;;;;;13.36;nan;100956.47;5033150;28;20392;-67
2022/09/24 04:59:48;;;;;;;48.60;27.75;;;;;;;13.25;nan;100934.94;5034768;28;20088;-64
2022/09/24 05:02:13;;;;;;;56.95;30.35;;;;;;;13.40;nan;100958.03;5033853;28;20379;-64
2022/09/24 05:04:39;;;;;;;45.30;26.45;;;;;;;13.41;nan;100973.88;5034361;28;20468;-65
2022/09/24 05:07:07;;;;;;;46.58;27.75;;;;;;;13.37;nan;100955.53;5032942;28;20456;-65
2022/09/24 05:09:32;;;;;;;44.88;26.95;;;;;;;13.44;nan;100964.94;5032707;28;20120;-63
2022/09/24 05:11:58;;;;;;;39.28;24.33;;;;;;;13.50;nan;100960.25;5033877;28;20468;-63
2022/09/24 05:14:24;;;;;;;31.15;20.73;;;;;;;13.22;nan;100911.25;5032387;28;20049;-63
2022/09/24 05:16:49;;;;;;;28.38;18.42;;;;;;;13.22;nan;100905.97;5033856;28;20374;-67
2022/09/24 05:19:15;;;;;;;25.80;16.65;;;;;;;13.34;nan;100924.78;5033969;28;20037;-63
2022/09/24 05:21:40;;;;;;;25.02;16.90;;;;;;;13.26;nan;100913.69;5033830;28;20029;-65
2022/09/24 05:24:06;;;;;;;27.80;17.48;;;;;;;13.32;nan;100909.94;5033498;28;20052;-63
2022/09/24 05:29:15;;;;;;;26.40;17.80;;;;;;;13.56;nan;100979.44;5033602;28;20091;-62
2022/09/24 05:31:40;;;;;;;22.05;15.50;;;;;;;13.25;nan;100922.53;5033516;28;20124;-64
2022/09/24 05:34:06;;;;;;;17.30;13.20;;;;;;;13.56;nan;100990.88;5028629;28;20115;-65
2022/09/24 05:36:31;;;;;;;21.02;14.18;;;;;;;13.49;nan;100965.59;5012497;28;20033;-64
2022/09/24 05:38:56;;;;;;;15.73;10.55;;;;;;;13.50;nan;100973.47;5013781;28;20034;-66
2022/09/24 05:41:22;;;;;;;14.73;9.27;;;;;;;13.52;nan;100989.28;5013826;28;20041;-64
2022/09/24 05:43:48;;;;;;;14.43;8.32;;;;;;;13.48;nan;100985.06;5013505;28;20048;-64
2022/09/24 05:46:13;;;;;;;10.95;7.05;;;;;;;13.33;nan;100956.59;5013451;28;20108;-63
2022/09/24 05:48:39;;;;;;;11.15;6.45;;;;;;;13.36;nan;100973.22;5011981;28;20084;-68
2022/09/24 05:51:04;;;;;;;10.65;5.50;;;;;;;13.40;nan;100984.50;5012299;28;20485;-67
2022/09/24 05:53:30;;;;;;;6.68;4.47;;;;;;;13.06;nan;100924.22;5013288;28;20552;-63
2022/09/24 05:55:57;;;;;;;7.53;4.57;;;;;;;13.39;nan;100983.66;5013287;28;20030;-64
2022/09/24 05:58:23;;;;;;;8.02;4.88;;;;;;;13.35;nan;100979.41;5028310;28;20153;-63
2022/09/24 06:00:49;;;;;;;14.80;5.55;;;;;;;13.44;nan;100988.75;4995611;28;20462;-62
2022/09/24 06:03:15;;;;;;;9.63;5.18;;;;;;;13.20;nan;100948.31;5013070;28;20219;-63
2022/09/24 06:05:45;;;;;;;7.95;5.10;;;;;;;13.14;nan;100935.34;5011527;28;20091;-65
2022/09/24 06:08:11;;;;;;;7.97;5.55;;;;;;;13.20;nan;100942.16;5013101;28;20030;-63
2022/09/24 06:10:37;;;;;;;12.02;6.82;;;;;;;13.31;nan;100963.75;5011887;28;20045;-64
2022/09/24 06:13:02;;;;;;;10.73;6.68;;;;;;;13.21;nan;100949.19;5012883;28;20371;-63
2022/09/24 06:15:28;;;;;;;11.00;6.60;;;;;;;13.25;nan;100967.47;5011656;28;20397;-67
2022/09/24 06:17:53;;;;;;;10.93;6.60;;;;;;;13.42;nan;100998.53;5012746;28;20103;-62
2022/09/24 06:20:19;;;;;;;9.02;6.50;;;;;;;13.52;nan;101015.72;5012948;28;20034;-67
2022/09/24 06:22:45;;;;;;;13.63;6.53;;;;;;;13.44;nan;100996.66;5011461;28;20481;-66
2022/09/24 06:25:10;;;;;;;11.32;5.40;;;;;;;13.18;nan;100950.16;5012588;28;20127;-64
2022/09/24 06:27:36;;;;;;;10.55;5.38;;;;;;;13.58;nan;101028.69;5011902;28;20587;-61
2022/09/24 06:30:01;;;;;;;9.43;4.47;;;;;;;13.58;nan;101018.09;5032131;28;20042;-61
2022/09/24 06:32:26;;;;;;;10.73;4.88;;;;;;;13.53;nan;101001.56;5032608;28;20396;-66
2022/09/24 06:34:52;;;;;;;8.27;4.55;;;;;;;13.63;nan;101026.69;5032349;28;20040;-63
2022/09/24 06:37:17;;;;;;;9.93;3.63;;;;;;;13.52;nan;101011.28;5032522;28;20034;-62
2022/09/24 06:39:43;;;;;;;9.27;4.30;;;;;;;13.63;nan;101023.22;5032282;28;20087;-62
2022/09/24 06:42:08;;;;;;;10.23;4.20;;;;;;;13.62;nan;101025.00;5030492;28;20033;-64
2022/09/24 06:44:34;;;;;;;8.52;3.92;;;;;;;13.69;nan;101030.91;5032523;28;20033;-62
2022/09/24 06:47:03;;;;;;;7.28;3.70;;;;;;;13.69;nan;101026.44;5031714;28;20081;-68
2022/09/24 06:49:28;;;;;;;8.32;3.20;;;;;;;13.45;nan;100983.41;5031072;28;20030;-64
2022/09/24 06:51:54;;;;;;;13.40;3.65;;;;;;;13.50;nan;100999.94;5032126;28;20088;-63
2022/09/24 06:54:20;;;;;;;12.77;4.10;;;;;;;13.30;nan;100970.81;5030988;28;20038;-61
2022/09/24 06:56:45;;;;;;;12.38;4.05;;;;;;;13.62;nan;101026.78;5032104;28;20083;-65
2022/09/24 06:59:11;;;;;;;12.52;4.00;;;;;;;13.41;nan;100981.81;5030471;28;20064;-63
2022/09/24 07:01:36;;;;;;;11.63;3.33;;;;;;;13.67;nan;101038.88;5031168;28;20040;-65
2022/09/24 07:04:01;;;;;;;9.68;4.18;;;;;;;13.50;nan;101014.94;5030866;28;20064;-61
2022/09/24 07:07:28;;;;;;;9.02;3.40;;;;;;;13.64;nan;101046.94;5032028;28;20105;-63
2022/09/24 07:09:12;;;;;;;14.60;3.58;;;;;;;13.63;nan;101055.78;5031708;28;20041;-65
2022/09/24 07:11:38;;;;;;;11.55;3.25;;;;;;;13.60;nan;101073.59;5032020;28;20447;-64
2022/09/24 07:14:03;;;;;;;10.32;3.40;;;;;;;13.23;nan;101024.84;5034907;28;20077;-64
2022/09/24 07:16:29;;;;;;;10.85;3.35;;;;;;;13.45;nan;101070.66;5036169;28;20040;-65
2022/09/24 07:18:54;;;;;;;14.90;3.03;;;;;;;13.43;nan;101074.25;5034486;28;20033;-65
2022/09/24 07:21:19;;;;;;;12.77;3.17;;;;;;;13.43;nan;101071.63;5035665;28;20113;-64
2022/09/24 07:23:46;;;;;;;11.70;3.08;;;;;;;13.40;nan;101067.31;5021931;28;20069;-63
2022/09/24 07:26:12;;;;;;;13.02;3.80;;;;;;;13.31;nan;101088.00;5017636;28;20038;-65
2022/09/24 07:28:37;;;;;;;15.45;3.55;;;;;;;13.08;nan;101049.22;5017026;28;20465;-62
2022/09/24 07:31:03;;;;;;;15.98;3.70;;;;;;;12.87;nan;101027.13;5016146;28;20484;-64
2022/09/24 07:33:30;;;;;;;14.13;3.80;;;;;;;13.19;nan;101085.84;5024530;28;20451;-66
2022/09/24 07:35:55;;;;;;;12.65;3.55;;;;;;;13.15;nan;101092.16;5033476;28;20508;-67
2022/09/24 07:38:21;;;;;;;12.57;4.30;;;;;;;13.20;nan;101096.34;5035682;28;20033;-65
2022/09/24 07:40:46;;;;;;;11.57;3.10;;;;;;;13.10;nan;101088.84;5035172;28;20461;-64
2022/09/24 07:43:12;;;;;;;10.98;3.53;;;;;;;13.16;nan;101102.69;5033316;28;20400;-63
2022/09/24 07:45:38;;;;;;;10.55;4.10;;;;;;;13.05;nan;101081.03;5035190;28;20040;-64
2022/09/24 07:48:07;;;;;;;15.52;4.00;;;;;;;13.17;nan;101101.75;5034278;28;20042;-65
2022/09/24 07:50:38;;;;;;;16.27;4.78;;;;;;;12.82;nan;101044.94;5034283;28;20396;-65
2022/09/24 07:53:05;;;;;;;10.63;3.13;;;;;;;13.09;nan;101111.75;5035250;28;20072;-66
2022/09/24 07:55:30;;;;;;;16.05;4.03;;;;;;;13.02;nan;101107.56;5017809;28;20029;-64
2022/09/24 07:57:56;;;;;;;12.40;3.55;;;;;;;12.71;nan;101059.47;5035390;28;20040;-64
2022/09/24 08:00:22;;;;;;;12.52;3.40;;;;;;;12.97;nan;101099.84;5033746;28;20038;-67
2022/09/24 08:02:48;;;;;;;14.60;2.95;;;;;;;12.96;nan;101110.44;5035057;28;20037;-64
2022/09/24 08:05:14;;;;;;;9.95;3.85;;;;;;;13.09;nan;101105.59;5017606;28;20037;-63
2022/09/24 08:07:40;;;;;;;9.10;3.03;;;;;;;13.03;nan;101090.81;5017211;28;20412;-65
2022/09/24 08:10:06;;;;;;;14.30;3.20;;;;;;;13.19;nan;101118.38;5017404;28;20060;-64
2022/09/24 08:12:32;;;;;;;10.23;3.65;;;;;;;13.28;nan;101114.56;5034532;28;20473;-64
2022/09/24 08:14:57;;;;;;;11.75;2.95;;;;;;;13.23;nan;101119.13;5033475;28;20053;-63
2022/09/24 08:17:23;;;;;;;10.43;3.15;;;;;;;13.30;nan;101105.66;5024137;28;20493;-64
2022/09/24 08:19:48;;;;;;;9.98;2.65;;;;;;;13.38;nan;101114.13;5014880;28;20038;-63
2022/09/24 08:22:14;;;;;;;9.77;2.85;;;;;;;13.01;nan;101052.16;5014577;28;20129;-65
2022/09/24 08:24:40;;;;;;;8.90;3.30;;;;;;;13.07;nan;101060.72;5029337;28;20038;-67
2022/09/24 08:27:16;;;;;;;13.75;3.50;;;;;;;13.48;nan;101130.50;5014322;28;20449;-64
2022/09/24 08:29:41;;;;;;;10.80;2.97;;;;;;;13.19;nan;101078.75;5014752;28;20428;-62
2022/09/24 08:32:07;;;;;;;15.15;3.35;;;;;;;13.58;nan;101112.47;4996764;28;20034;-63
2022/09/24 08:34:37;;;;;;;8.35;2.65;;;;;;;13.65;nan;101140.41;5014383;28;20064;-64
2022/09/24 08:37:03;;;;;;;11.73;3.28;;;;;;;13.71;nan;101126.94;5014796;28;20044;-67
2022/09/24 08:39:29;;;;;;;14.63;2.97;;;;;;;13.76;nan;101117.00;5014602;28;20597;-64
2022/09/24 08:41:57;;;;;;;9.90;2.20;;;;;;;13.60;nan;101084.19;5013336;28;20060;-62
2022/09/24 08:48:01;;;;;;;6.43;2.38;;;;;;;14.15;nan;101140.97;5013779;28;20555;-66
2022/09/24 08:50:29;;;;;;;11.55;2.50;;;;;;;14.03;nan;101127.31;4992723;28;20070;-68
2022/09/24 08:52:57;;;;;;;7.88;3.08;;;;;;;14.09;nan;101163.25;4992512;28;20038;-61
2022/09/24 08:55:26;;;;;;;17.48;2.80;;;;;;;14.16;nan;101147.97;5003099;28;20054;-65
2022/09/24 08:58:15;;;;;;;10.30;2.25;;;;;;;14.15;nan;101147.13;5013120;28;20232;-65
2022/09/24 09:00:50;;;;;;;8.52;1.90;;;;;;;13.92;nan;101096.94;4994233;28;20069;-65
2022/09/24 09:03:28;;;;;;;10.57;2.25;;;;;;;13.87;nan;101099.75;5014253;28;20033;-64
2022/09/24 09:05:59;;;;;;;10.82;2.45;;;;;;;14.22;nan;101163.59;5029458;28;20088;-66
2022/09/24 09:08:47;;;;;;;5.82;2.13;;;;;;;14.25;nan;101159.03;5013008;28;20032;-68
2022/09/24 09:11:14;;;;;;;9.50;2.40;;;;;;;14.26;nan;101154.59;5016534;28;20503;-67
2022/09/24 09:13:53;;;;;;;8.70;1.85;;;;;;;14.34;nan;101163.97;5013844;28;20057;-67
2022/09/24 09:16:46;;;;;;;18.30;2.75;;;;;;;14.48;nan;101179.25;5012675;28;20105;-63
2022/09/24 09:19:13;;;;;;;13.07;2.28;;;;;;;14.36;nan;101171.88;5011186;28;20489;-65
2022/09/24 09:21:45;;;;;;;9.68;2.10;;;;;;;14.09;nan;101097.94;4996597;28;20038;-65
2022/09/24 09:24:19;;;;;;;6.25;1.75;;;;;;;14.41;nan;101160.16;5012621;28;20133;-62
2022/09/24 09:26:48;;;;;;;7.50;1.85;;;;;;;14.50;nan;101188.91;5012471;28;20022;-67
2022/09/24 09:29:15;;;;;;;5.43;1.92;;;;;;;14.30;nan;101127.91;5012557;28;20088;-65
2022/09/24 09:31:59;;;;;;;7.90;1.50;;;;;;;14.55;nan;101228.41;5012570;28;20033;-65
2022/09/24 09:34:46;;;;;;;10.88;3.65;;;;;;;14.52;nan;101200.28;5013798;28;20096;-64
2022/09/24 09:37:33;;;;;;;8.65;2.10;;;;;;;14.44;nan;101197.09;5011314;28;20409;-60
2022/09/24 09:40:22;;;;;;;8.63;1.98;;;;;;;14.50;nan;101203.91;5012445;28;20066;-62
2022/09/24 09:42:47;;;;;;;9.60;2.22;;;;;;;14.22;nan;101151.22;5013316;28;20112;-61
2022/09/24 09:45:23;;;;;;;7.68;1.90;;;;;;;14.69;nan;101204.84;5012207;28;20481;-57
2022/09/24 09:47:48;;;;;;;5.65;1.92;;;;;;;14.83;nan;101212.16;5013243;28;20493;-59
2022/09/24 09:50:31;;;;;;;6.22;1.52;;;;;;;14.83;nan;101214.81;5012236;28;20070;-60
2022/09/24 09:52:56;;;;;;;7.55;2.17;;;;;;;14.50;nan;101161.53;5011994;28;20083;-61
2022/09/24 09:55:25;;;;;;;5.15;1.60;;;;;;;14.81;nan;101220.22;5013449;28;20038;-60
2022/09/24 09:57:51;;;;;;;8.10;1.80;;;;;;;14.26;nan;101149.31;5028477;28;20040;-60
2022/09/24 10:00:32;;;;;;;8.77;1.90;;;;;;;14.55;nan;101220.47;5013320;28;20080;-67
2022/09/24 10:02:58;;;;;;;6.22;2.08;;;;;;;14.22;nan;101159.16;5012014;28;20025;-64
2022/09/24 10:05:27;;;;;;;5.30;1.80;;;;;;;14.09;nan;101137.66;5016246;28;20042;-59
2022/09/24 10:07:53;;;;;;;8.85;2.20;;;;;;;14.20;nan;101162.81;5013128;28;20482;-61
2022/09/24 10:10:22;;;;;;;9.80;2.20;;;;;;;14.49;nan;101204.84;5013069;28;20040;-64
2022/09/24 10:12:51;;;;;;;7.55;1.52;;;;;;;14.12;nan;101147.25;5012904;28;20037;-63
2022/09/24 10:15:18;;;;;;;7.53;1.70;;;;;;;14.03;nan;101153.78;5012786;28;20565;-60
2022/09/24 10:17:45;;;;;;;9.43;2.00;;;;;;;14.51;nan;101218.88;5013000;28;20044;-60
2022/09/24 10:20:15;;;;;;;6.88;1.73;;;;;;;14.55;nan;101242.53;5011921;28;20033;-61
2022/09/24 10:22:46;;;;;;;8.38;1.80;;;;;;;14.50;nan;101227.75;5011435;28;20034;-61
2022/09/24 10:25:16;;;;;;;;;;;;;;;14.59;nan;101222.06;5011789;28;20033;-64
2022/09/24 10:27:42;;;;;;;5.57;1.30;;;;;;;14.60;nan;101222.00;5011617;28;19996;-60
2022/09/24 10:30:33;;;;;;;10.75;2.17;;;;;;;14.52;nan;101247.09;4994536;28;20030;-60
2022/09/24 10:33:00;;;;;;;9.50;2.30;;;;;;;14.56;nan;101236.28;5011975;28;20119;-63
2022/09/24 10:35:34;;;;;;;5.53;1.23;;;;;;;14.36;nan;101228.31;5010954;28;20030;-62
2022/09/24 10:38:00;;;;;;;5.82;1.67;;;;;;;14.43;nan;101240.38;5012712;28;20033;-60
2022/09/24 10:40:29;;;;;;;6.65;1.40;;;;;;;14.39;nan;101224.72;5011730;28;20080;-65
2022/09/24 10:43:02;;;;;;;5.53;1.25;;;;;;;14.32;nan;101188.78;5012713;28;20480;-59
2022/09/24 10:45:47;;;;;;;7.30;1.75;;;;;;;14.62;nan;101256.38;5012726;28;20096;-58
2022/09/24 10:48:19;;;;;;;4.97;1.70;;;;;;;14.54;nan;101253.16;5012440;28;20109;-61
2022/09/24 10:51:23;;;;;;;5.78;1.58;;;;;;;14.60;nan;101240.53;5012273;28;20042;-62
2022/09/24 10:54:17;;;;;;;7.35;1.20;;;;;;;14.58;nan;101258.28;5002988;28;20463;-60
2022/09/24 10:56:46;;;;;;;6.53;1.55;;;;;;;14.64;nan;101257.16;5021143;28;20065;-64
2022/09/24 10:59:35;;;;;;;4.30;1.00;;;;;;;14.72;nan;101256.84;5030357;28;20428;-61
2022/09/24 11:02:19;;;;;;;6.38;1.02;;;;;;;14.72;nan;101262.13;5015319;28;20400;-62
2022/09/24 11:05:04;;;;;;;6.30;1.27;;;;;;;14.75;nan;101262.88;5030573;28;20037;-58
2022/09/24 11:07:30;;;;;;;5.22;1.33;;;;;;;14.70;nan;101258.69;5037899;28;20127;-61
2022/09/24 11:09:57;;;;;;;5.20;1.27;;;;;;;14.62;nan;101275.75;5015734;28;20560;-60
2022/09/24 11:12:36;;;;;;;5.95;1.75;;;;;;;14.52;nan;101231.19;5029888;28;20443;-56
2022/09/24 11:15:18;;;;;;;6.05;1.50;;;;;;;14.68;nan;101263.22;5031158;28;20073;-56
2022/09/24 11:18:11;;;;;;;5.18;1.25;;;;;;;14.38;nan;101212.38;5030198;28;20061;-59
2022/09/24 11:21:09;;;;;;;5.47;1.00;;;;;;;14.45;nan;101225.28;5028906;28;20029;-64
2022/09/24 11:24:00;;;;;;;5.32;1.10;;;;;;;14.87;nan;101283.56;5031406;28;20068;-62
2022/09/24 11:26:55;;;;;;;5.20;1.50;;;;;;;14.94;nan;101279.72;5047502;28;20485;-60
2022/09/24 11:29:32;;;;;;;4.05;1.25;;;;;;;15.08;nan;101279.97;5028314;28;20044;-59
2022/09/24 11:32:14;;;;;;;6.35;1.30;;;;;;;15.17;nan;101270.75;5030571;28;20044;-59
2022/09/24 11:34:49;;;;;;;4.97;1.15;;;;;;;15.27;nan;101279.13;5047259;28;20084;-60
2022/09/24 11:37:36;;;;;;;6.03;1.38;;;;;;;15.27;nan;101272.03;5031758;28;20033;-60
2022/09/24 11:40:15;;;;;;;6.20;1.55;;;;;;;15.23;nan;101286.41;5030444;28;20029;-59
2022/09/24 11:42:58;;;;;;;3.45;1.20;;;;;;;15.23;nan;101292.53;5031646;28;20029;-60
2022/09/24 11:45:35;;;;;;;6.72;1.35;;;;;;;15.04;nan;101222.69;5030558;28;20370;-53
2022/09/24 11:48:22;;;;;;;5.90;1.10;;;;;;;15.23;nan;101289.03;5030256;28;20124;-60
2022/09/24 11:50:56;;;;;;;3.58;1.45;;;;;;;15.22;nan;101297.91;5031570;28;20040;-60
2022/09/24 11:53:38;;;;;;;7.90;1.65;;;;;;;15.17;nan;101313.19;5030698;28;20034;-58
2022/09/24 11:56:21;;;;;;;3.83;1.77;;;;;;;15.17;nan;101291.97;5031751;28;20061;-60